sensor_id;sensor_type;location;lat;lon;timestamp;P1;durP1;ratioP1;P2;durP2;ratioP2
31112;SDS011;17763;48.730;9.136;2023-02-28T00:00:11;4.88;;;3.50;;
31112;SDS011;17763;48.730;9.136;2023-02-28T00:02:42;4.50;;;3.40;;
31112;SDS011;17763;48.730;9.136;2023-02-28T00:05:14;4.28;;;3.95;;
31112;SDS011;17763;48.730;9.136;2023-02-28T00:10:09;5.10;;;3.55;;
31112;SDS011;17763;48.730;9.136;2023-02-28T00:12:39;4.47;;;4.00;;
31112;SDS011;17763;48.730;9.136;2023-02-28T00:15:05;3.42;;;3.13;;
31112;SDS011;17763;48.730;9.136;2023-02-28T00:17:36;4.40;;;3.88;;
31112;SDS011;17763;48.730;9.136;2023-02-28T00:20:06;5.18;;;3.65;;
31112;SDS011;17763;48.730;9.136;2023-02-28T00:22:35;4.53;;;3.53;;
31112;SDS011;17763;48.730;9.136;2023-02-28T00:25:02;4.13;;;3.20;;
31112;SDS011;17763;48.730;9.136;2023-02-28T00:27:28;4.13;;;3.20;;
31112;SDS011;17763;48.730;9.136;2023-02-28T00:29:54;5.95;;;4.03;;
31112;SDS011;17763;48.730;9.136;2023-02-28T00:32:20;6.63;;;4.20;;
31112;SDS011;17763;48.730;9.136;2023-02-28T00:34:48;4.05;;;3.65;;
31112;SDS011;17763;48.730;9.136;2023-02-28T00:37:14;5.78;;;4.55;;
31112;SDS011;17763;48.730;9.136;2023-02-28T00:39:39;4.03;;;3.63;;
31112;SDS011;17763;48.730;9.136;2023-02-28T00:42:06;5.57;;;4.68;;
31112;SDS011;17763;48.730;9.136;2023-02-28T00:44:32;5.68;;;4.05;;
31112;SDS011;17763;48.730;9.136;2023-02-28T00:46:58;4.78;;;3.97;;
31112;SDS011;17763;48.730;9.136;2023-02-28T00:49:28;5.97;;;3.90;;
31112;SDS011;17763;48.730;9.136;2023-02-28T00:51:54;4.30;;;3.90;;
31112;SDS011;17763;48.730;9.136;2023-02-28T00:54:20;4.53;;;3.50;;
31112;SDS011;17763;48.730;9.136;2023-02-28T00:56:46;4.45;;;4.05;;
31112;SDS011;17763;48.730;9.136;2023-02-28T00:59:13;5.88;;;3.72;;
31112;SDS011;17763;48.730;9.136;2023-02-28T01:01:43;3.80;;;3.50;;
31112;SDS011;17763;48.730;9.136;2023-02-28T01:04:10;6.70;;;4.60;;
31112;SDS011;17763;48.730;9.136;2023-02-28T01:06:36;5.90;;;3.88;;
31112;SDS011;17763;48.730;9.136;2023-02-28T01:09:02;4.38;;;3.97;;
31112;SDS011;17763;48.730;9.136;2023-02-28T01:11:29;5.35;;;4.03;;
31112;SDS011;17763;48.730;9.136;2023-02-28T01:13:55;4.82;;;3.65;;
31112;SDS011;17763;48.730;9.136;2023-02-28T01:16:23;4.47;;;3.65;;
31112;SDS011;17763;48.730;9.136;2023-02-28T01:18:49;4.15;;;3.78;;
31112;SDS011;17763;48.730;9.136;2023-02-28T01:21:16;5.32;;;3.90;;
31112;SDS011;17763;48.730;9.136;2023-02-28T01:23:45;4.05;;;3.65;;
31112;SDS011;17763;48.730;9.136;2023-02-28T01:26:14;4.10;;;3.65;;
31112;SDS011;17763;48.730;9.136;2023-02-28T01:28:45;8.23;;;4.47;;
31112;SDS011;17763;48.730;9.136;2023-02-28T01:31:12;5.15;;;4.00;;
31112;SDS011;17763;48.730;9.136;2023-02-28T01:33:37;4.15;;;3.60;;
31112;SDS011;17763;48.730;9.136;2023-02-28T01:36:08;5.05;;;4.32;;
31112;SDS011;17763;48.730;9.136;2023-02-28T01:38:38;4.43;;;4.03;;
31112;SDS011;17763;48.730;9.136;2023-02-28T01:41:05;4.25;;;3.90;;
31112;SDS011;17763;48.730;9.136;2023-02-28T01:43:39;4.50;;;4.07;;
31112;SDS011;17763;48.730;9.136;2023-02-28T01:46:28;5.22;;;4.25;;
31112;SDS011;17763;48.730;9.136;2023-02-28T01:51:34;6.40;;;4.15;;
31112;SDS011;17763;48.730;9.136;2023-02-28T01:54:20;4.93;;;4.47;;
31112;SDS011;17763;48.730;9.136;2023-02-28T01:56:51;4.57;;;4.15;;
31112;SDS011;17763;48.730;9.136;2023-02-28T01:59:31;4.72;;;3.80;;
31112;SDS011;17763;48.730;9.136;2023-02-28T02:02:02;4.07;;;3.67;;
31112;SDS011;17763;48.730;9.136;2023-02-28T02:04:32;4.97;;;4.57;;
31112;SDS011;17763;48.730;9.136;2023-02-28T02:07:03;8.55;;;4.65;;
31112;SDS011;17763;48.730;9.136;2023-02-28T02:09:30;4.63;;;4.07;;
31112;SDS011;17763;48.730;9.136;2023-02-28T02:11:55;5.93;;;4.65;;
31112;SDS011;17763;48.730;9.136;2023-02-28T02:39:01;5.55;;;4.85;;
31112;SDS011;17763;48.730;9.136;2023-02-28T02:41:39;5.93;;;4.97;;
31112;SDS011;17763;48.730;9.136;2023-02-28T02:44:08;8.20;;;4.88;;
31112;SDS011;17763;48.730;9.136;2023-02-28T02:46:39;9.25;;;4.90;;
31112;SDS011;17763;48.730;9.136;2023-02-28T02:49:09;6.03;;;5.30;;
31112;SDS011;17763;48.730;9.136;2023-02-28T02:51:41;7.38;;;4.63;;
31112;SDS011;17763;48.730;9.136;2023-02-28T02:54:22;6.18;;;5.20;;
31112;SDS011;17763;48.730;9.136;2023-02-28T02:56:56;5.97;;;5.10;;
31112;SDS011;17763;48.730;9.136;2023-02-28T02:59:26;6.32;;;5.18;;
31112;SDS011;17763;48.730;9.136;2023-02-28T03:01:55;6.35;;;5.15;;
31112;SDS011;17763;48.730;9.136;2023-02-28T03:04:25;5.50;;;5.00;;
31112;SDS011;17763;48.730;9.136;2023-02-28T03:06:57;6.38;;;5.10;;
31112;SDS011;17763;48.730;9.136;2023-02-28T03:09:28;5.50;;;5.00;;
31112;SDS011;17763;48.730;9.136;2023-02-28T03:11:54;6.40;;;4.90;;
31112;SDS011;17763;48.730;9.136;2023-02-28T03:22:29;6.15;;;5.53;;
31112;SDS011;17763;48.730;9.136;2023-02-28T03:27:54;6.03;;;5.43;;
31112;SDS011;17763;48.730;9.136;2023-02-28T03:33:16;6.35;;;5.85;;
31112;SDS011;17763;48.730;9.136;2023-02-28T03:35:55;5.93;;;5.32;;
31112;SDS011;17763;48.730;9.136;2023-02-28T03:38:30;5.82;;;5.18;;
31112;SDS011;17763;48.730;9.136;2023-02-28T03:41:07;6.43;;;5.78;;
31112;SDS011;17763;48.730;9.136;2023-02-28T03:43:40;6.93;;;5.68;;
31112;SDS011;17763;48.730;9.136;2023-02-28T03:46:10;9.68;;;6.00;;
31112;SDS011;17763;48.730;9.136;2023-02-28T03:48:42;6.60;;;6.00;;
31112;SDS011;17763;48.730;9.136;2023-02-28T03:51:15;7.90;;;5.82;;
31112;SDS011;17763;48.730;9.136;2023-02-28T03:53:45;7.45;;;6.00;;
31112;SDS011;17763;48.730;9.136;2023-02-28T03:56:17;7.25;;;5.93;;
31112;SDS011;17763;48.730;9.136;2023-02-28T04:01:20;9.55;;;5.90;;
31112;SDS011;17763;48.730;9.136;2023-02-28T04:04:08;7.18;;;6.47;;
31112;SDS011;17763;48.730;9.136;2023-02-28T04:06:34;6.53;;;5.63;;
31112;SDS011;17763;48.730;9.136;2023-02-28T04:09:01;9.68;;;5.80;;
31112;SDS011;17763;48.730;9.136;2023-02-28T04:11:33;7.65;;;6.75;;
31112;SDS011;17763;48.730;9.136;2023-02-28T04:14:28;9.18;;;6.53;;
31112;SDS011;17763;48.730;9.136;2023-02-28T04:16:53;7.93;;;6.07;;
31112;SDS011;17763;48.730;9.136;2023-02-28T04:19:19;7.22;;;6.50;;
31112;SDS011;17763;48.730;9.136;2023-02-28T04:21:46;8.23;;;6.30;;
31112;SDS011;17763;48.730;9.136;2023-02-28T04:24:14;10.77;;;6.90;;
31112;SDS011;17763;48.730;9.136;2023-02-28T04:26:43;6.93;;;6.15;;
31112;SDS011;17763;48.730;9.136;2023-02-28T04:29:14;6.63;;;5.90;;
31112;SDS011;17763;48.730;9.136;2023-02-28T04:31:44;6.00;;;5.40;;
31112;SDS011;17763;48.730;9.136;2023-02-28T04:34:10;8.82;;;6.35;;
31112;SDS011;17763;48.730;9.136;2023-02-28T04:36:35;9.43;;;6.43;;
31112;SDS011;17763;48.730;9.136;2023-02-28T04:39:01;9.40;;;6.25;;
31112;SDS011;17763;48.730;9.136;2023-02-28T04:41:29;9.75;;;6.28;;
31112;SDS011;17763;48.730;9.136;2023-02-28T04:43:55;8.25;;;6.93;;
31112;SDS011;17763;48.730;9.136;2023-02-28T04:46:21;7.35;;;6.53;;
31112;SDS011;17763;48.730;9.136;2023-02-28T04:48:48;9.52;;;6.93;;
31112;SDS011;17763;48.730;9.136;2023-02-28T04:51:14;10.65;;;7.53;;
31112;SDS011;17763;48.730;9.136;2023-02-28T04:53:42;8.63;;;6.70;;
31112;SDS011;17763;48.730;9.136;2023-02-28T04:56:10;6.85;;;6.22;;
31112;SDS011;17763;48.730;9.136;2023-02-28T04:58:40;8.02;;;6.60;;
31112;SDS011;17763;48.730;9.136;2023-02-28T05:01:27;9.27;;;6.78;;
31112;SDS011;17763;48.730;9.136;2023-02-28T05:03:54;9.45;;;6.75;;
31112;SDS011;17763;48.730;9.136;2023-02-28T05:06:22;12.30;;;7.57;;
31112;SDS011;17763;48.730;9.136;2023-02-28T05:08:50;10.65;;;7.13;;
31112;SDS011;17763;48.730;9.136;2023-02-28T05:11:20;9.65;;;7.97;;
31112;SDS011;17763;48.730;9.136;2023-02-28T05:13:48;9.95;;;7.15;;
31112;SDS011;17763;48.730;9.136;2023-02-28T05:16:19;9.15;;;7.68;;
31112;SDS011;17763;48.730;9.136;2023-02-28T05:18:45;9.77;;;7.35;;
31112;SDS011;17763;48.730;9.136;2023-02-28T05:21:22;9.05;;;7.45;;
31112;SDS011;17763;48.730;9.136;2023-02-28T05:23:52;10.15;;;8.02;;
31112;SDS011;17763;48.730;9.136;2023-02-28T05:26:19;9.50;;;7.10;;
31112;SDS011;17763;48.730;9.136;2023-02-28T05:28:45;8.90;;;7.20;;
31112;SDS011;17763;48.730;9.136;2023-02-28T05:31:11;7.97;;;7.20;;
31112;SDS011;17763;48.730;9.136;2023-02-28T05:33:38;9.68;;;7.32;;
31112;SDS011;17763;48.730;9.136;2023-02-28T05:36:04;9.13;;;7.10;;
31112;SDS011;17763;48.730;9.136;2023-02-28T05:38:30;9.85;;;7.45;;
31112;SDS011;17763;48.730;9.136;2023-02-28T05:40:58;9.05;;;7.18;;
31112;SDS011;17763;48.730;9.136;2023-02-28T05:43:24;8.13;;;7.22;;
31112;SDS011;17763;48.730;9.136;2023-02-28T05:45:50;9.48;;;7.50;;
31112;SDS011;17763;48.730;9.136;2023-02-28T05:48:15;9.20;;;8.23;;
31112;SDS011;17763;48.730;9.136;2023-02-28T05:50:43;9.52;;;7.70;;
31112;SDS011;17763;48.730;9.136;2023-02-28T05:53:10;8.82;;;7.57;;
31112;SDS011;17763;48.730;9.136;2023-02-28T05:55:39;8.57;;;6.82;;
31112;SDS011;17763;48.730;9.136;2023-02-28T05:58:06;10.50;;;7.70;;
31112;SDS011;17763;48.730;9.136;2023-02-28T06:00:31;9.55;;;7.55;;
31112;SDS011;17763;48.730;9.136;2023-02-28T06:02:57;13.10;;;7.63;;
31112;SDS011;17763;48.730;9.136;2023-02-28T06:05:26;10.55;;;8.45;;
31112;SDS011;17763;48.730;9.136;2023-02-28T06:07:52;11.32;;;7.97;;
31112;SDS011;17763;48.730;9.136;2023-02-28T06:10:18;8.70;;;7.85;;
31112;SDS011;17763;48.730;9.136;2023-02-28T06:12:44;9.05;;;7.35;;
31112;SDS011;17763;48.730;9.136;2023-02-28T06:15:14;12.60;;;8.73;;
31112;SDS011;17763;48.730;9.136;2023-02-28T06:17:40;10.88;;;7.97;;
31112;SDS011;17763;48.730;9.136;2023-02-28T06:20:07;12.50;;;8.32;;
31112;SDS011;17763;48.730;9.136;2023-02-28T06:22:35;11.05;;;8.75;;
31112;SDS011;17763;48.730;9.136;2023-02-28T06:25:04;10.93;;;7.88;;
31112;SDS011;17763;48.730;9.136;2023-02-28T06:27:33;12.70;;;9.10;;
31112;SDS011;17763;48.730;9.136;2023-02-28T06:29:59;13.23;;;8.15;;
31112;SDS011;17763;48.730;9.136;2023-02-28T06:32:27;11.18;;;8.18;;
31112;SDS011;17763;48.730;9.136;2023-02-28T06:34:53;11.50;;;8.15;;
31112;SDS011;17763;48.730;9.136;2023-02-28T06:37:19;9.25;;;7.70;;
31112;SDS011;17763;48.730;9.136;2023-02-28T06:39:47;10.07;;;8.10;;
31112;SDS011;17763;48.730;9.136;2023-02-28T06:42:12;9.23;;;7.72;;
31112;SDS011;17763;48.730;9.136;2023-02-28T06:44:38;11.63;;;8.05;;
31112;SDS011;17763;48.730;9.136;2023-02-28T06:47:05;11.30;;;7.95;;
31112;SDS011;17763;48.730;9.136;2023-02-28T06:49:34;11.43;;;8.68;;
31112;SDS011;17763;48.730;9.136;2023-02-28T06:52:00;9.93;;;7.90;;
31112;SDS011;17763;48.730;9.136;2023-02-28T06:54:29;10.73;;;7.97;;
31112;SDS011;17763;48.730;9.136;2023-02-28T06:56:54;13.00;;;8.10;;
31112;SDS011;17763;48.730;9.136;2023-02-28T06:59:20;9.90;;;8.02;;
31112;SDS011;17763;48.730;9.136;2023-02-28T07:01:46;11.43;;;8.60;;
31112;SDS011;17763;48.730;9.136;2023-02-28T07:04:14;9.63;;;8.05;;
31112;SDS011;17763;48.730;9.136;2023-02-28T07:06:39;10.02;;;8.05;;
31112;SDS011;17763;48.730;9.136;2023-02-28T07:09:05;10.70;;;9.10;;
31112;SDS011;17763;48.730;9.136;2023-02-28T07:11:31;11.63;;;8.40;;
31112;SDS011;17763;48.730;9.136;2023-02-28T07:13:57;10.45;;;9.35;;
31112;SDS011;17763;48.730;9.136;2023-02-28T07:16:23;10.98;;;8.73;;
31112;SDS011;17763;48.730;9.136;2023-02-28T07:18:52;11.50;;;9.45;;
31112;SDS011;17763;48.730;9.136;2023-02-28T07:21:18;11.68;;;9.45;;
31112;SDS011;17763;48.730;9.136;2023-02-28T07:23:44;15.38;;;9.65;;
31112;SDS011;17763;48.730;9.136;2023-02-28T07:26:14;11.65;;;8.95;;
31112;SDS011;17763;48.730;9.136;2023-02-28T07:28:42;13.48;;;8.93;;
31112;SDS011;17763;48.730;9.136;2023-02-28T07:31:08;15.95;;;9.57;;
31112;SDS011;17763;48.730;9.136;2023-02-28T07:33:35;10.48;;;8.60;;
31112;SDS011;17763;48.730;9.136;2023-02-28T07:36:01;13.48;;;9.32;;
31112;SDS011;17763;48.730;9.136;2023-02-28T07:38:48;12.07;;;9.27;;
31112;SDS011;17763;48.730;9.136;2023-02-28T07:41:18;12.95;;;9.18;;
31112;SDS011;17763;48.730;9.136;2023-02-28T07:43:45;14.02;;;10.07;;
31112;SDS011;17763;48.730;9.136;2023-02-28T07:46:12;11.55;;;9.07;;
31112;SDS011;17763;48.730;9.136;2023-02-28T07:48:42;10.73;;;9.13;;
31112;SDS011;17763;48.730;9.136;2023-02-28T07:51:09;11.75;;;9.48;;
31112;SDS011;17763;48.730;9.136;2023-02-28T07:53:34;11.55;;;9.30;;
31112;SDS011;17763;48.730;9.136;2023-02-28T07:56:01;14.35;;;9.77;;
31112;SDS011;17763;48.730;9.136;2023-02-28T07:58:28;11.85;;;9.88;;
31112;SDS011;17763;48.730;9.136;2023-02-28T08:00:55;11.05;;;9.75;;
31112;SDS011;17763;48.730;9.136;2023-02-28T08:03:21;13.23;;;9.35;;
31112;SDS011;17763;48.730;9.136;2023-02-28T08:05:47;14.68;;;11.50;;
31112;SDS011;17763;48.730;9.136;2023-02-28T08:08:14;15.75;;;10.45;;
31112;SDS011;17763;48.730;9.136;2023-02-28T08:10:40;15.50;;;10.57;;
31112;SDS011;17763;48.730;9.136;2023-02-28T08:13:06;16.83;;;9.88;;
31112;SDS011;17763;48.730;9.136;2023-02-28T08:15:32;14.70;;;10.23;;
31112;SDS011;17763;48.730;9.136;2023-02-28T08:17:58;15.80;;;9.82;;
31112;SDS011;17763;48.730;9.136;2023-02-28T08:20:24;13.07;;;10.15;;
31112;SDS011;17763;48.730;9.136;2023-02-28T08:22:50;19.35;;;11.68;;
31112;SDS011;17763;48.730;9.136;2023-02-28T08:25:16;14.55;;;10.30;;
31112;SDS011;17763;48.730;9.136;2023-02-28T08:27:44;13.32;;;10.10;;
31112;SDS011;17763;48.730;9.136;2023-02-28T08:30:11;14.43;;;10.40;;
31112;SDS011;17763;48.730;9.136;2023-02-28T08:32:37;14.13;;;9.98;;
31112;SDS011;17763;48.730;9.136;2023-02-28T08:35:04;13.82;;;10.18;;
31112;SDS011;17763;48.730;9.136;2023-02-28T08:37:30;12.52;;;10.43;;
31112;SDS011;17763;48.730;9.136;2023-02-28T08:39:56;13.57;;;10.02;;
31112;SDS011;17763;48.730;9.136;2023-02-28T08:42:21;14.88;;;11.80;;
31112;SDS011;17763;48.730;9.136;2023-02-28T08:44:48;13.35;;;10.90;;
31112;SDS011;17763;48.730;9.136;2023-02-28T08:47:13;16.13;;;9.77;;
31112;SDS011;17763;48.730;9.136;2023-02-28T08:49:39;11.93;;;9.95;;
31112;SDS011;17763;48.730;9.136;2023-02-28T08:52:05;13.50;;;9.40;;
31112;SDS011;17763;48.730;9.136;2023-02-28T08:54:31;11.95;;;10.25;;
31112;SDS011;17763;48.730;9.136;2023-02-28T08:56:58;14.25;;;10.45;;
31112;SDS011;17763;48.730;9.136;2023-02-28T08:59:26;13.18;;;10.05;;
31112;SDS011;17763;48.730;9.136;2023-02-28T09:01:52;13.18;;;10.07;;
31112;SDS011;17763;48.730;9.136;2023-02-28T09:04:17;13.25;;;10.30;;
31112;SDS011;17763;48.730;9.136;2023-02-28T09:06:43;12.13;;;9.32;;
31112;SDS011;17763;48.730;9.136;2023-02-28T09:09:09;17.60;;;11.15;;
31112;SDS011;17763;48.730;9.136;2023-02-28T09:11:35;13.18;;;9.93;;
31112;SDS011;17763;48.730;9.136;2023-02-28T09:14:01;14.02;;;10.05;;
31112;SDS011;17763;48.730;9.136;2023-02-28T09:16:28;15.23;;;10.82;;
31112;SDS011;17763;48.730;9.136;2023-02-28T09:18:55;13.75;;;10.25;;
31112;SDS011;17763;48.730;9.136;2023-02-28T09:21:22;16.02;;;9.70;;
31112;SDS011;17763;48.730;9.136;2023-02-28T09:23:48;12.05;;;9.73;;
31112;SDS011;17763;48.730;9.136;2023-02-28T09:26:23;12.90;;;9.60;;
31112;SDS011;17763;48.730;9.136;2023-02-28T09:28:50;13.50;;;10.05;;
31112;SDS011;17763;48.730;9.136;2023-02-28T09:31:20;13.88;;;10.18;;
31112;SDS011;17763;48.730;9.136;2023-02-28T09:36:15;12.43;;;9.77;;
31112;SDS011;17763;48.730;9.136;2023-02-28T09:38:40;12.23;;;10.68;;
31112;SDS011;17763;48.730;9.136;2023-02-28T09:41:14;14.00;;;10.13;;
31112;SDS011;17763;48.730;9.136;2023-02-28T09:43:46;14.65;;;10.90;;
31112;SDS011;17763;48.730;9.136;2023-02-28T09:49:12;16.55;;;11.00;;
31112;SDS011;17763;48.730;9.136;2023-02-28T09:54:35;14.05;;;10.90;;
31112;SDS011;17763;48.730;9.136;2023-02-28T09:57:06;15.25;;;10.55;;
31112;SDS011;17763;48.730;9.136;2023-02-28T10:05:11;13.90;;;10.27;;
31112;SDS011;17763;48.730;9.136;2023-02-28T10:13:15;16.85;;;11.30;;
31112;SDS011;17763;48.730;9.136;2023-02-28T10:16:16;13.65;;;10.55;;
31112;SDS011;17763;48.730;9.136;2023-02-28T10:18:47;14.32;;;10.73;;
31112;SDS011;17763;48.730;9.136;2023-02-28T10:21:36;14.95;;;11.38;;
31112;SDS011;17763;48.730;9.136;2023-02-28T10:24:19;16.35;;;11.55;;
31112;SDS011;17763;48.730;9.136;2023-02-28T10:26:52;14.25;;;11.00;;
31112;SDS011;17763;48.730;9.136;2023-02-28T10:29:24;16.00;;;12.27;;
31112;SDS011;17763;48.730;9.136;2023-02-28T10:31:51;15.15;;;10.55;;
31112;SDS011;17763;48.730;9.136;2023-02-28T10:34:17;16.05;;;11.85;;
31112;SDS011;17763;48.730;9.136;2023-02-28T10:36:42;16.95;;;11.45;;
31112;SDS011;17763;48.730;9.136;2023-02-28T10:42:05;14.65;;;11.40;;
31112;SDS011;17763;48.730;9.136;2023-02-28T10:45:05;18.20;;;12.18;;
31112;SDS011;17763;48.730;9.136;2023-02-28T10:47:40;16.70;;;11.82;;
31112;SDS011;17763;48.730;9.136;2023-02-28T10:50:32;16.08;;;11.10;;
31112;SDS011;17763;48.730;9.136;2023-02-28T10:55:55;14.68;;;11.63;;
31112;SDS011;17763;48.730;9.136;2023-02-28T10:58:25;13.90;;;11.63;;
31112;SDS011;17763;48.730;9.136;2023-02-28T11:01:15;15.32;;;11.57;;
31112;SDS011;17763;48.730;9.136;2023-02-28T11:04:01;14.65;;;10.93;;
31112;SDS011;17763;48.730;9.136;2023-02-28T11:06:31;16.17;;;11.80;;
31112;SDS011;17763;48.730;9.136;2023-02-28T11:09:00;13.60;;;10.90;;
31112;SDS011;17763;48.730;9.136;2023-02-28T11:11:29;15.73;;;11.55;;
31112;SDS011;17763;48.730;9.136;2023-02-28T11:14:07;16.88;;;10.88;;
31112;SDS011;17763;48.730;9.136;2023-02-28T11:16:58;16.10;;;11.23;;
31112;SDS011;17763;48.730;9.136;2023-02-28T11:19:40;20.52;;;12.00;;
31112;SDS011;17763;48.730;9.136;2023-02-28T11:22:10;17.10;;;12.35;;
31112;SDS011;17763;48.730;9.136;2023-02-28T11:24:44;18.33;;;12.57;;
31112;SDS011;17763;48.730;9.136;2023-02-28T11:27:47;12.45;;;11.10;;
31112;SDS011;17763;48.730;9.136;2023-02-28T11:30:36;16.88;;;11.80;;
31112;SDS011;17763;48.730;9.136;2023-02-28T11:33:20;14.38;;;11.18;;
31112;SDS011;17763;48.730;9.136;2023-02-28T11:36:00;14.77;;;11.05;;
31112;SDS011;17763;48.730;9.136;2023-02-28T11:38:31;20.33;;;12.48;;
31112;SDS011;17763;48.730;9.136;2023-02-28T11:41:05;15.82;;;12.77;;
31112;SDS011;17763;48.730;9.136;2023-02-28T11:44:19;19.02;;;13.18;;
31112;SDS011;17763;48.730;9.136;2023-02-28T11:46:29;14.10;;;11.70;;
31112;SDS011;17763;48.730;9.136;2023-02-28T11:55:00;16.17;;;10.88;;
31112;SDS011;17763;48.730;9.136;2023-02-28T12:03:35;14.55;;;11.82;;
31112;SDS011;17763;48.730;9.136;2023-02-28T12:15:05;14.02;;;11.80;;
31112;SDS011;17763;48.730;9.136;2023-02-28T12:18:46;15.13;;;11.20;;
31112;SDS011;17763;48.730;9.136;2023-02-28T12:23:43;15.55;;;11.65;;
31112;SDS011;17763;48.730;9.136;2023-02-28T12:26:16;14.40;;;11.27;;
31112;SDS011;17763;48.730;9.136;2023-02-28T12:31:53;15.65;;;12.38;;
31112;SDS011;17763;48.730;9.136;2023-02-28T12:34:25;14.73;;;11.40;;
31112;SDS011;17763;48.730;9.136;2023-02-28T12:39:45;14.10;;;11.23;;
31112;SDS011;17763;48.730;9.136;2023-02-28T12:42:24;15.50;;;12.00;;
31112;SDS011;17763;48.730;9.136;2023-02-28T12:44:56;13.52;;;11.38;;
31112;SDS011;17763;48.730;9.136;2023-02-28T12:47:26;14.57;;;10.90;;
31112;SDS011;17763;48.730;9.136;2023-02-28T12:49:56;15.30;;;12.10;;
31112;SDS011;17763;48.730;9.136;2023-02-28T12:55:03;13.38;;;10.75;;
31112;SDS011;17763;48.730;9.136;2023-02-28T12:57:41;13.18;;;11.20;;
31112;SDS011;17763;48.730;9.136;2023-02-28T13:00:16;15.77;;;12.27;;
31112;SDS011;17763;48.730;9.136;2023-02-28T13:10:53;15.32;;;11.43;;
31112;SDS011;17763;48.730;9.136;2023-02-28T13:13:23;16.83;;;12.00;;
31112;SDS011;17763;48.730;9.136;2023-02-28T13:16:02;15.95;;;11.95;;
31112;SDS011;17763;48.730;9.136;2023-02-28T13:20:56;14.43;;;11.50;;
31112;SDS011;17763;48.730;9.136;2023-02-28T13:26:05;13.65;;;12.02;;
31112;SDS011;17763;48.730;9.136;2023-02-28T13:31:20;14.77;;;11.88;;
31112;SDS011;17763;48.730;9.136;2023-02-28T13:38:46;14.77;;;11.38;;
31112;SDS011;17763;48.730;9.136;2023-02-28T13:47:16;18.77;;;11.90;;
31112;SDS011;17763;48.730;9.136;2023-02-28T14:05:43;17.35;;;11.70;;
31112;SDS011;17763;48.730;9.136;2023-02-28T14:08:16;13.15;;;11.65;;
31112;SDS011;17763;48.730;9.136;2023-02-28T14:10:46;14.85;;;11.65;;
31112;SDS011;17763;48.730;9.136;2023-02-28T14:18:32;18.80;;;12.50;;
31112;SDS011;17763;48.730;9.136;2023-02-28T14:29:43;14.98;;;11.43;;
31112;SDS011;17763;48.730;9.136;2023-02-28T14:32:28;13.70;;;10.95;;
31112;SDS011;17763;48.730;9.136;2023-02-28T14:37:43;13.32;;;10.98;;
31112;SDS011;17763;48.730;9.136;2023-02-28T14:40:20;14.07;;;11.07;;
31112;SDS011;17763;48.730;9.136;2023-02-28T14:43:01;16.10;;;11.68;;
31112;SDS011;17763;48.730;9.136;2023-02-28T14:45:34;18.10;;;12.48;;
31112;SDS011;17763;48.730;9.136;2023-02-28T14:48:02;13.60;;;10.77;;
31112;SDS011;17763;48.730;9.136;2023-02-28T14:50:34;15.90;;;11.05;;
31112;SDS011;17763;48.730;9.136;2023-02-28T14:53:02;11.73;;;10.13;;
31112;SDS011;17763;48.730;9.136;2023-02-28T14:55:32;12.52;;;10.73;;
31112;SDS011;17763;48.730;9.136;2023-02-28T14:58:01;14.98;;;11.07;;
31112;SDS011;17763;48.730;9.136;2023-02-28T15:03:17;16.73;;;10.73;;
31112;SDS011;17763;48.730;9.136;2023-02-28T15:08:43;16.25;;;10.63;;
31112;SDS011;17763;48.730;9.136;2023-02-28T15:11:16;16.25;;;10.60;;
31112;SDS011;17763;48.730;9.136;2023-02-28T15:13:53;14.38;;;10.48;;
31112;SDS011;17763;48.730;9.136;2023-02-28T15:16:26;13.85;;;11.13;;
31112;SDS011;17763;48.730;9.136;2023-02-28T15:18:57;13.48;;;10.93;;
31112;SDS011;17763;48.730;9.136;2023-02-28T15:24:05;12.13;;;10.55;;
31112;SDS011;17763;48.730;9.136;2023-02-28T15:26:42;12.88;;;10.77;;
31112;SDS011;17763;48.730;9.136;2023-02-28T15:29:14;14.98;;;10.43;;
31112;SDS011;17763;48.730;9.136;2023-02-28T15:31:44;12.73;;;10.82;;
31112;SDS011;17763;48.730;9.136;2023-02-28T15:34:19;13.75;;;10.90;;
31112;SDS011;17763;48.730;9.136;2023-02-28T15:36:46;15.43;;;10.45;;
31112;SDS011;17763;48.730;9.136;2023-02-28T15:39:25;11.10;;;9.88;;
31112;SDS011;17763;48.730;9.136;2023-02-28T15:42:12;13.75;;;10.52;;
31112;SDS011;17763;48.730;9.136;2023-02-28T15:44:43;15.35;;;10.98;;
31112;SDS011;17763;48.730;9.136;2023-02-28T15:47:25;12.40;;;10.10;;
31112;SDS011;17763;48.730;9.136;2023-02-28T15:49:54;11.68;;;10.00;;
31112;SDS011;17763;48.730;9.136;2023-02-28T15:57:43;13.55;;;10.68;;
31112;SDS011;17763;48.730;9.136;2023-02-28T16:00:12;11.35;;;9.65;;
31112;SDS011;17763;48.730;9.136;2023-02-28T16:02:42;14.35;;;10.75;;
31112;SDS011;17763;48.730;9.136;2023-02-28T16:07:42;12.57;;;10.10;;
31112;SDS011;17763;48.730;9.136;2023-02-28T16:10:10;13.65;;;10.65;;
31112;SDS011;17763;48.730;9.136;2023-02-28T16:12:39;15.05;;;10.48;;
31112;SDS011;17763;48.730;9.136;2023-02-28T16:15:07;14.77;;;11.52;;
31112;SDS011;17763;48.730;9.136;2023-02-28T16:17:42;12.52;;;10.73;;
31112;SDS011;17763;48.730;9.136;2023-02-28T16:20:14;12.65;;;10.73;;
31112;SDS011;17763;48.730;9.136;2023-02-28T16:22:51;14.20;;;11.50;;
31112;SDS011;17763;48.730;9.136;2023-02-28T16:25:20;14.45;;;11.90;;
31112;SDS011;17763;48.730;9.136;2023-02-28T16:27:51;12.98;;;11.63;;
31112;SDS011;17763;48.730;9.136;2023-02-28T16:30:23;14.73;;;10.50;;
31112;SDS011;17763;48.730;9.136;2023-02-28T16:32:51;13.32;;;11.15;;
31112;SDS011;17763;48.730;9.136;2023-02-28T16:35:18;14.40;;;10.82;;
31112;SDS011;17763;48.730;9.136;2023-02-28T16:37:44;14.38;;;10.80;;
31112;SDS011;17763;48.730;9.136;2023-02-28T16:40:28;16.63;;;11.98;;
31112;SDS011;17763;48.730;9.136;2023-02-28T16:43:04;16.55;;;11.80;;
31112;SDS011;17763;48.730;9.136;2023-02-28T16:45:34;15.30;;;11.65;;
31112;SDS011;17763;48.730;9.136;2023-02-28T16:48:00;15.45;;;11.80;;
31112;SDS011;17763;48.730;9.136;2023-02-28T16:50:27;15.63;;;12.23;;
31112;SDS011;17763;48.730;9.136;2023-02-28T16:52:54;14.88;;;10.98;;
31112;SDS011;17763;48.730;9.136;2023-02-28T16:55:21;13.55;;;11.57;;
31112;SDS011;17763;48.730;9.136;2023-02-28T16:57:55;14.80;;;11.52;;
31112;SDS011;17763;48.730;9.136;2023-02-28T17:00:23;16.35;;;11.35;;
31112;SDS011;17763;48.730;9.136;2023-02-28T17:02:50;16.85;;;12.02;;
31112;SDS011;17763;48.730;9.136;2023-02-28T17:05:15;16.13;;;12.40;;
31112;SDS011;17763;48.730;9.136;2023-02-28T17:07:42;15.20;;;10.80;;
31112;SDS011;17763;48.730;9.136;2023-02-28T17:12:43;15.88;;;11.57;;
31112;SDS011;17763;48.730;9.136;2023-02-28T17:15:09;16.35;;;10.93;;
31112;SDS011;17763;48.730;9.136;2023-02-28T17:17:39;16.23;;;11.40;;
31112;SDS011;17763;48.730;9.136;2023-02-28T17:20:06;16.80;;;12.02;;
31112;SDS011;17763;48.730;9.136;2023-02-28T17:22:32;17.27;;;11.88;;
31112;SDS011;17763;48.730;9.136;2023-02-28T17:24:58;15.35;;;11.95;;
31112;SDS011;17763;48.730;9.136;2023-02-28T17:27:24;20.23;;;11.75;;
31112;SDS011;17763;48.730;9.136;2023-02-28T17:29:50;17.50;;;12.02;;
31112;SDS011;17763;48.730;9.136;2023-02-28T17:32:16;14.15;;;10.68;;
31112;SDS011;17763;48.730;9.136;2023-02-28T17:34:42;13.85;;;11.98;;
31112;SDS011;17763;48.730;9.136;2023-02-28T17:37:09;16.25;;;12.10;;
31112;SDS011;17763;48.730;9.136;2023-02-28T17:39:35;13.20;;;10.80;;
31112;SDS011;17763;48.730;9.136;2023-02-28T17:42:01;14.48;;;11.68;;
31112;SDS011;17763;48.730;9.136;2023-02-28T17:44:29;12.65;;;11.07;;
31112;SDS011;17763;48.730;9.136;2023-02-28T17:46:55;14.77;;;11.77;;
31112;SDS011;17763;48.730;9.136;2023-02-28T17:49:21;17.35;;;12.18;;
31112;SDS011;17763;48.730;9.136;2023-02-28T17:51:47;19.95;;;13.10;;